sensor_id;sensor_type;location;lat;lon;timestamp;pressure;altitude;pressure_sealevel;temperature;humidity
5126;BME280;63008;53.112;8.896;2023-03-25T00:00:39;99957.47;;;9.68;87.81
5126;BME280;63008;53.112;8.896;2023-03-25T00:02:44;99956.44;;;9.73;87.96
5126;BME280;63008;53.112;8.896;2023-03-25T00:04:50;99954.25;;;9.78;87.30
5126;BME280;63008;53.112;8.896;2023-03-25T00:06:54;99944.53;;;9.81;87.33
5126;BME280;63008;53.112;8.896;2023-03-25T00:08:56;99955.56;;;9.84;87.04
5126;BME280;63008;53.112;8.896;2023-03-25T00:10:58;99953.09;;;9.79;87.64
5126;BME280;63008;53.112;8.896;2023-03-25T00:13:00;99958.09;;;9.89;86.28
5126;BME280;63008;53.112;8.896;2023-03-25T00:15:06;99952.50;;;9.86;87.07
5126;BME280;63008;53.112;8.896;2023-03-25T00:17:07;99960.56;;;9.94;86.16
5126;BME280;63008;53.112;8.896;2023-03-25T00:19:10;99944.84;;;9.91;86.56
5126;BME280;63008;53.112;8.896;2023-03-25T00:21:11;99943.47;;;9.85;86.95
5126;BME280;63008;53.112;8.896;2023-03-25T00:23:12;99953.75;;;9.88;86.81
5126;BME280;63008;53.112;8.896;2023-03-25T00:25:14;99943.31;;;9.94;86.21
5126;BME280;63008;53.112;8.896;2023-03-25T00:27:17;99935.81;;;9.91;86.39
5126;BME280;63008;53.112;8.896;2023-03-25T00:29:18;99943.94;;;9.87;86.63
5126;BME280;63008;53.112;8.896;2023-03-25T00:31:20;99931.41;;;9.86;86.53
5126;BME280;63008;53.112;8.896;2023-03-25T00:33:20;99944.63;;;9.84;86.62
5126;BME280;63008;53.112;8.896;2023-03-25T00:35:22;99944.63;;;9.84;86.50
5126;BME280;63008;53.112;8.896;2023-03-25T00:37:23;99939.69;;;9.90;86.01
5126;BME280;63008;53.112;8.896;2023-03-25T00:39:25;99944.72;;;9.88;85.88
5126;BME280;63008;53.112;8.896;2023-03-25T00:41:26;99945.19;;;9.90;85.80
5126;BME280;63008;53.112;8.896;2023-03-25T00:43:27;99946.00;;;9.90;86.04
5126;BME280;63008;53.112;8.896;2023-03-25T00:45:28;99945.19;;;9.90;85.73
5126;BME280;63008;53.112;8.896;2023-03-25T00:47:30;99938.66;;;9.94;85.61
5126;BME280;63008;53.112;8.896;2023-03-25T00:49:31;99934.06;;;9.98;84.82
5126;BME280;63008;53.112;8.896;2023-03-25T00:51:32;99947.31;;;9.96;85.08
5126;BME280;63008;53.112;8.896;2023-03-25T00:53:34;99948.13;;;9.97;84.95
5126;BME280;63008;53.112;8.896;2023-03-25T00:55:35;99938.97;;;10.05;84.54
5126;BME280;63008;53.112;8.896;2023-03-25T00:57:37;99941.22;;;10.15;83.88
5126;BME280;63008;53.112;8.896;2023-03-25T00:59:39;99943.84;;;10.11;84.02
5126;BME280;63008;53.112;8.896;2023-03-25T01:01:40;99940.53;;;10.18;83.45
5126;BME280;63008;53.112;8.896;2023-03-25T01:03:43;99938.28;;;10.08;83.59
5126;BME280;63008;53.112;8.896;2023-03-25T01:05:44;99945.13;;;10.14;83.48
5126;BME280;63008;53.112;8.896;2023-03-25T01:07:45;99942.25;;;10.10;83.79
5126;BME280;63008;53.112;8.896;2023-03-25T01:09:49;99947.22;;;10.20;82.33
5126;BME280;63008;53.112;8.896;2023-03-25T01:11:50;99936.72;;;10.22;82.40
5126;BME280;63008;53.112;8.896;2023-03-25T01:13:53;99937.41;;;10.19;82.43
5126;BME280;63008;53.112;8.896;2023-03-25T01:15:54;99941.66;;;10.17;83.09
5126;BME280;63008;53.112;8.896;2023-03-25T01:17:55;99935.81;;;10.18;81.94
5126;BME280;63008;53.112;8.896;2023-03-25T01:19:56;99945.63;;;10.19;82.40
5126;BME280;63008;53.112;8.896;2023-03-25T01:21:57;99948.13;;;10.24;81.87
5126;BME280;63008;53.112;8.896;2023-03-25T01:23:58;99926.81;;;10.18;82.08
5126;BME280;63008;53.112;8.896;2023-03-25T01:26:00;99930.34;;;10.18;81.72
5126;BME280;63008;53.112;8.896;2023-03-25T01:28:01;99917.34;;;10.15;82.20
5126;BME280;63008;53.112;8.896;2023-03-25T01:30:02;99923.63;;;10.16;82.10
5126;BME280;63008;53.112;8.896;2023-03-25T01:32:04;99929.72;;;10.09;82.45
5126;BME280;63008;53.112;8.896;2023-03-25T01:34:05;99928.56;;;10.10;82.30
5126;BME280;63008;53.112;8.896;2023-03-25T01:36:07;99922.38;;;10.13;81.90
5126;BME280;63008;53.112;8.896;2023-03-25T01:38:12;99921.66;;;10.16;81.81
5126;BME280;63008;53.112;8.896;2023-03-25T01:40:18;99915.75;;;10.14;81.58
5126;BME280;63008;53.112;8.896;2023-03-25T01:42:19;99926.81;;;10.18;81.33
5126;BME280;63008;53.112;8.896;2023-03-25T01:46:21;99916.78;;;10.10;81.68
5126;BME280;63008;53.112;8.896;2023-03-25T01:48:26;99904.00;;;10.14;81.14
5126;BME280;63008;53.112;8.896;2023-03-25T01:50:35;99906.81;;;10.17;80.89
5126;BME280;63008;53.112;8.896;2023-03-25T01:52:37;99905.22;;;10.16;80.66
5126;BME280;63008;53.112;8.896;2023-03-25T01:54:39;99905.47;;;10.11;81.06
5126;BME280;63008;53.112;8.896;2023-03-25T01:56:41;99903.09;;;10.10;81.05
5126;BME280;63008;53.112;8.896;2023-03-25T01:58:42;99899.28;;;10.14;80.61
5126;BME280;63008;53.112;8.896;2023-03-25T02:00:44;99893.38;;;10.12;81.06
5126;BME280;63008;53.112;8.896;2023-03-25T02:02:47;99902.03;;;10.14;80.87
5126;BME280;63008;53.112;8.896;2023-03-25T02:04:56;99894.97;;;10.13;80.47
5126;BME280;63008;53.112;8.896;2023-03-25T02:06:59;99893.19;;;10.05;80.91
5126;BME280;63008;53.112;8.896;2023-03-25T02:09:03;99891.66;;;10.08;80.61
5126;BME280;63008;53.112;8.896;2023-03-25T02:11:09;99888.50;;;10.06;80.67
5126;BME280;63008;53.112;8.896;2023-03-25T02:13:10;99882.22;;;10.05;80.59
5126;BME280;63008;53.112;8.896;2023-03-25T02:15:13;99892.28;;;10.01;80.50
5126;BME280;63008;53.112;8.896;2023-03-25T02:17:25;99888.28;;;9.99;80.48
5126;BME280;63008;53.112;8.896;2023-03-25T02:19:45;99898.81;;;9.97;80.85
5126;BME280;63008;53.112;8.896;2023-03-25T02:22:21;99881.81;;;9.91;81.17
5126;BME280;63008;53.112;8.896;2023-03-25T02:24:48;99890.34;;;10.02;80.41
5126;BME280;63008;53.112;8.896;2023-03-25T02:27:08;99889.53;;;10.01;80.30
5126;BME280;63008;53.112;8.896;2023-03-25T02:29:36;99887.13;;;10.00;80.19
5126;BME280;63008;53.112;8.896;2023-03-25T02:32:12;99891.13;;;10.02;79.86
5126;BME280;63008;53.112;8.896;2023-03-25T02:34:28;99895.69;;;9.98;80.09
5126;BME280;63008;53.112;8.896;2023-03-25T02:37:01;99885.31;;;10.04;79.62
5126;BME280;63008;53.112;8.896;2023-03-25T02:39:22;99883.00;;;10.06;79.47
5126;BME280;63008;53.112;8.896;2023-03-25T02:41:40;99891.59;;;10.04;79.62
5126;BME280;63008;53.112;8.896;2023-03-25T02:44:10;99883.38;;;10.04;79.83
5126;BME280;63008;53.112;8.896;2023-03-25T02:46:16;99885.16;;;10.00;79.59
5126;BME280;63008;53.112;8.896;2023-03-25T02:48:26;99884.50;;;10.03;79.30
5126;BME280;63008;53.112;8.896;2023-03-25T02:50:36;99876.66;;;10.02;79.44
5126;BME280;63008;53.112;8.896;2023-03-25T02:52:42;99880.63;;;10.04;79.50
5126;BME280;63008;53.112;8.896;2023-03-25T02:54:46;99877.09;;;10.04;79.46
5126;BME280;63008;53.112;8.896;2023-03-25T02:56:52;99876.88;;;9.97;79.35
5126;BME280;63008;53.112;8.896;2023-03-25T02:58:58;99873.00;;;9.98;79.39
5126;BME280;63008;53.112;8.896;2023-03-25T03:01:00;99873.09;;;10.01;79.31
5126;BME280;63008;53.112;8.896;2023-03-25T03:03:03;99877.53;;;10.06;78.70
5126;BME280;63008;53.112;8.896;2023-03-25T03:05:20;99877.97;;;10.08;78.60
5126;BME280;63008;53.112;8.896;2023-03-25T03:07:30;99870.78;;;10.03;78.76
5126;BME280;63008;53.112;8.896;2023-03-25T03:14:05;99870.91;;;9.95;79.99
5126;BME280;63008;53.112;8.896;2023-03-25T03:16:14;99860.50;;;9.85;80.99
5126;BME280;63008;53.112;8.896;2023-03-25T03:21:08;99862.25;;;9.77;81.72
5126;BME280;63008;53.112;8.896;2023-03-25T03:23:24;99868.88;;;9.76;81.45
5126;BME280;63008;53.112;8.896;2023-03-25T03:25:47;99856.88;;;9.81;80.57
5126;BME280;63008;53.112;8.896;2023-03-25T03:30:07;99853.69;;;9.79;80.47
5126;BME280;63008;53.112;8.896;2023-03-25T03:32:42;99855.50;;;9.75;80.55
5126;BME280;63008;53.112;8.896;2023-03-25T03:34:51;99854.56;;;9.83;79.72
5126;BME280;63008;53.112;8.896;2023-03-25T03:36:54;99862.34;;;9.81;79.68
5126;BME280;63008;53.112;8.896;2023-03-25T03:39:03;99847.28;;;9.75;79.88
5126;BME280;63008;53.112;8.896;2023-03-25T03:41:09;99847.50;;;9.82;79.31
5126;BME280;63008;53.112;8.896;2023-03-25T03:43:17;99856.75;;;9.77;79.73
5126;BME280;63008;53.112;8.896;2023-03-25T03:45:28;99850.56;;;9.80;79.69
5126;BME280;63008;53.112;8.896;2023-03-25T03:47:36;99854.47;;;9.79;79.52
5126;BME280;63008;53.112;8.896;2023-03-25T03:49:41;99867.00;;;9.80;79.31
5126;BME280;63008;53.112;8.896;2023-03-25T03:51:58;99859.94;;;9.79;79.44
5126;BME280;63008;53.112;8.896;2023-03-25T03:54:05;99861.03;;;9.90;78.22
5126;BME280;63008;53.112;8.896;2023-03-25T03:56:18;99859.88;;;9.91;78.50
5126;BME280;63008;53.112;8.896;2023-03-25T03:58:25;99861.81;;;9.91;78.51
5126;BME280;63008;53.112;8.896;2023-03-25T04:00:37;99879.16;;;9.95;77.99
5126;BME280;63008;53.112;8.896;2023-03-25T04:02:48;99873.94;;;9.90;78.79
5126;BME280;63008;53.112;8.896;2023-03-25T04:04:50;99867.22;;;9.87;79.17
5126;BME280;63008;53.112;8.896;2023-03-25T04:07:16;99870.75;;;9.88;79.58
5126;BME280;63008;53.112;8.896;2023-03-25T04:12:24;99879.56;;;9.81;80.60
5126;BME280;63008;53.112;8.896;2023-03-25T04:14:26;99883.16;;;9.70;81.35
5126;BME280;63008;53.112;8.896;2023-03-25T04:16:27;99887.16;;;9.72;81.23
5126;BME280;63008;53.112;8.896;2023-03-25T04:18:28;99884.56;;;9.64;82.13
5126;BME280;63008;53.112;8.896;2023-03-25T04:20:31;99883.31;;;9.61;82.26
5126;BME280;63008;53.112;8.896;2023-03-25T04:22:34;99881.28;;;9.58;82.94
5126;BME280;63008;53.112;8.896;2023-03-25T04:24:38;99886.31;;;9.56;82.51
5126;BME280;63008;53.112;8.896;2023-03-25T04:26:42;99891.06;;;9.59;83.27
5126;BME280;63008;53.112;8.896;2023-03-25T04:28:43;99890.63;;;9.57;83.92
5126;BME280;63008;53.112;8.896;2023-03-25T04:30:46;99879.47;;;9.50;84.74
5126;BME280;63008;53.112;8.896;2023-03-25T04:32:55;99878.34;;;9.51;85.22
5126;BME280;63008;53.112;8.896;2023-03-25T04:34:56;99876.53;;;9.43;85.83
5126;BME280;63008;53.112;8.896;2023-03-25T04:36:57;99881.44;;;9.38;85.99
5126;BME280;63008;53.112;8.896;2023-03-25T04:38:58;99881.56;;;9.41;85.59
5126;BME280;63008;53.112;8.896;2023-03-25T04:40:59;99882.25;;;9.38;86.08
5126;BME280;63008;53.112;8.896;2023-03-25T04:43:00;99879.97;;;9.40;86.01
5126;BME280;63008;53.112;8.896;2023-03-25T04:45:04;99890.81;;;9.37;85.94
5126;BME280;63008;53.112;8.896;2023-03-25T04:47:06;99886.22;;;9.41;85.41
5126;BME280;63008;53.112;8.896;2023-03-25T04:49:10;99894.69;;;9.36;86.17
5126;BME280;63008;53.112;8.896;2023-03-25T04:51:17;99883.03;;;9.39;85.66
5126;BME280;63008;53.112;8.896;2023-03-25T04:53:19;99878.63;;;9.34;86.08
5126;BME280;63008;53.112;8.896;2023-03-25T04:55:20;99886.84;;;9.34;86.58
5126;BME280;63008;53.112;8.896;2023-03-25T04:57:21;99877.56;;;9.39;85.83
5126;BME280;63008;53.112;8.896;2023-03-25T04:59:22;99884.56;;;9.36;86.30
5126;BME280;63008;53.112;8.896;2023-03-25T05:01:26;99878.63;;;9.34;86.46
5126;BME280;63008;53.112;8.896;2023-03-25T05:03:31;99875.88;;;9.34;86.29
5126;BME280;63008;53.112;8.896;2023-03-25T05:05:32;99871.56;;;9.33;86.45
5126;BME280;63008;53.112;8.896;2023-03-25T05:07:33;99869.03;;;9.28;86.86
5126;BME280;63008;53.112;8.896;2023-03-25T05:09:34;99873.75;;;9.28;87.16
5126;BME280;63008;53.112;8.896;2023-03-25T05:11:36;99880.00;;;9.28;87.26
5126;BME280;63008;53.112;8.896;2023-03-25T05:13:39;99876.09;;;9.29;86.90
5126;BME280;63008;53.112;8.896;2023-03-25T05:15:40;99884.00;;;9.31;86.67
5126;BME280;63008;53.112;8.896;2023-03-25T05:17:42;99884.78;;;9.31;86.49
5126;BME280;63008;53.112;8.896;2023-03-25T05:19:43;99888.00;;;9.33;85.96
5126;BME280;63008;53.112;8.896;2023-03-25T05:21:44;99883.41;;;9.37;85.84
5126;BME280;63008;53.112;8.896;2023-03-25T05:23:45;99889.59;;;9.34;85.96
5126;BME280;63008;53.112;8.896;2023-03-25T05:25:48;99884.88;;;9.35;85.62
5126;BME280;63008;53.112;8.896;2023-03-25T05:27:50;99882.72;;;9.40;85.25
5126;BME280;63008;53.112;8.896;2023-03-25T05:29:51;99889.31;;;9.39;84.92
5126;BME280;63008;53.112;8.896;2023-03-25T05:31:52;99882.34;;;9.42;84.92
5126;BME280;63008;53.112;8.896;2023-03-25T05:33:53;99880.31;;;9.39;85.05
5126;BME280;63008;53.112;8.896;2023-03-25T05:35:54;99882.00;;;9.43;84.56
5126;BME280;63008;53.112;8.896;2023-03-25T05:37:55;99880.75;;;9.41;84.81
5126;BME280;63008;53.112;8.896;2023-03-25T05:39:56;99882.25;;;9.38;84.71
5126;BME280;63008;53.112;8.896;2023-03-25T05:41:57;99885.56;;;9.44;84.36
5126;BME280;63008;53.112;8.896;2023-03-25T05:44:02;99887.16;;;9.45;84.25
5126;BME280;63008;53.112;8.896;2023-03-25T05:46:03;99885.88;;;9.42;85.47
5126;BME280;63008;53.112;8.896;2023-03-25T05:48:05;99885.88;;;9.42;84.51
5126;BME280;63008;53.112;8.896;2023-03-25T05:50:06;99888.75;;;9.46;84.15
5126;BME280;63008;53.112;8.896;2023-03-25T05:52:08;99888.63;;;9.42;84.19
5126;BME280;63008;53.112;8.896;2023-03-25T05:54:11;99902.44;;;9.46;83.87
5126;BME280;63008;53.112;8.896;2023-03-25T05:56:12;99892.38;;;9.50;83.31
5126;BME280;63008;53.112;8.896;2023-03-25T05:58:13;99900.00;;;9.56;82.94
5126;BME280;63008;53.112;8.896;2023-03-25T06:00:16;99904.59;;;9.52;83.44
5126;BME280;63008;53.112;8.896;2023-03-25T06:02:18;99893.16;;;9.50;83.32
5126;BME280;63008;53.112;8.896;2023-03-25T06:04:20;99895.41;;;9.60;82.62
5126;BME280;63008;53.112;8.896;2023-03-25T06:06:21;99900.00;;;9.56;82.90
5126;BME280;63008;53.112;8.896;2023-03-25T06:08:25;99901.22;;;9.59;82.72
5126;BME280;63008;53.112;8.896;2023-03-25T06:10:26;99903.97;;;9.59;82.58
5126;BME280;63008;53.112;8.896;2023-03-25T06:12:27;99899.19;;;9.56;82.76
5126;BME280;63008;53.112;8.896;2023-03-25T06:14:29;99904.59;;;9.52;83.28
5126;BME280;63008;53.112;8.896;2023-03-25T06:16:31;99897.69;;;9.58;82.55
5126;BME280;63008;53.112;8.896;2023-03-25T06:18:34;99895.06;;;9.62;82.25
5126;BME280;63008;53.112;8.896;2023-03-25T06:20:36;99903.75;;;9.64;82.16
5126;BME280;63008;53.112;8.896;2023-03-25T06:22:44;99905.78;;;9.67;81.64
5126;BME280;63008;53.112;8.896;2023-03-25T06:24:45;99903.38;;;9.65;81.53
5126;BME280;63008;53.112;8.896;2023-03-25T06:26:48;99904.97;;;9.66;81.92
5126;BME280;63008;53.112;8.896;2023-03-25T06:28:49;99905.66;;;9.63;81.94
5126;BME280;63008;53.112;8.896;2023-03-25T06:30:50;99905.41;;;9.68;81.73
5126;BME280;63008;53.112;8.896;2023-03-25T06:32:51;99907.03;;;9.69;81.57
5126;BME280;63008;53.112;8.896;2023-03-25T06:34:55;99907.56;;;9.75;81.67
5126;BME280;63008;53.112;8.896;2023-03-25T06:36:56;99906.78;;;9.74;81.56
5126;BME280;63008;53.112;8.896;2023-03-25T06:38:57;99912.44;;;9.81;81.66
5126;BME280;63008;53.112;8.896;2023-03-25T06:40:58;99906.41;;;9.76;81.72
5126;BME280;63008;53.112;8.896;2023-03-25T06:42:59;99915.56;;;9.80;81.70
5126;BME280;63008;53.112;8.896;2023-03-25T06:45:00;99917.16;;;9.81;81.44
5126;BME280;63008;53.112;8.896;2023-03-25T06:47:04;99914.28;;;9.77;81.36
5126;BME280;63008;53.112;8.896;2023-03-25T06:49:06;99915.19;;;9.81;81.40
5126;BME280;63008;53.112;8.896;2023-03-25T06:51:07;99906.47;;;9.91;81.00
5126;BME280;63008;53.112;8.896;2023-03-25T06:53:08;99909.75;;;9.97;80.53
5126;BME280;63008;53.112;8.896;2023-03-25T06:55:09;99907.34;;;9.95;80.79
5126;BME280;63008;53.112;8.896;2023-03-25T06:57:10;99907.22;;;10.04;80.65
5126;BME280;63008;53.112;8.896;2023-03-25T06:59:11;99907.34;;;10.07;79.83
5126;BME280;63008;53.112;8.896;2023-03-25T07:01:12;99918.94;;;10.16;78.80
5126;BME280;63008;53.112;8.896;2023-03-25T07:03:13;99906.63;;;10.10;79.13
5126;BME280;63008;53.112;8.896;2023-03-25T07:05:14;99904.44;;;10.16;78.28
5126;BME280;63008;53.112;8.896;2023-03-25T07:07:15;99922.22;;;10.22;78.19
5126;BME280;63008;53.112;8.896;2023-03-25T07:09:16;99918.31;;;10.23;77.95
5126;BME280;63008;53.112;8.896;2023-03-25T07:11:23;99904.28;;;10.24;77.56
5126;BME280;63008;53.112;8.896;2023-03-25T07:13:25;99918.06;;;10.28;77.79
5126;BME280;63008;53.112;8.896;2023-03-25T07:15:26;99915.84;;;10.33;77.80
5126;BME280;63008;53.112;8.896;2023-03-25T07:17:27;99912.16;;;10.41;77.63
5126;BME280;63008;53.112;8.896;2023-03-25T07:19:28;99909.75;;;10.40;77.35
5126;BME280;63008;53.112;8.896;2023-03-25T07:21:29;99921.97;;;10.42;77.12
5126;BME280;63008;53.112;8.896;2023-03-25T07:23:30;99912.50;;;10.40;76.75
5126;BME280;63008;53.112;8.896;2023-03-25T07:25:31;99915.78;;;10.45;76.79
5126;BME280;63008;53.112;8.896;2023-03-25T07:27:32;99911.78;;;10.43;77.60
5126;BME280;63008;53.112;8.896;2023-03-25T07:29:33;99909.94;;;10.31;77.00
5126;BME280;63008;53.112;8.896;2023-03-25T07:31:34;99908.22;;;10.27;77.24
5126;BME280;63008;53.112;8.896;2023-03-25T07:33:36;99910.47;;;10.21;77.53
5126;BME280;63008;53.112;8.896;2023-03-25T07:35:37;99912.13;;;10.26;77.83
5126;BME280;63008;53.112;8.896;2023-03-25T07:37:38;99905.31;;;10.20;78.02
5126;BME280;63008;53.112;8.896;2023-03-25T07:39:39;99908.66;;;10.13;78.17
5126;BME280;63008;53.112;8.896;2023-03-25T07:41:40;99929.56;;;10.18;78.51
5126;BME280;63008;53.112;8.896;2023-03-25T07:43:42;99914.59;;;10.15;78.08
5126;BME280;63008;53.112;8.896;2023-03-25T07:45:45;99914.41;;;10.08;79.75
5126;BME280;63008;53.112;8.896;2023-03-25T07:47:46;99906.91;;;10.05;80.17
5126;BME280;63008;53.112;8.896;2023-03-25T07:49:49;99928.66;;;10.14;79.47
5126;BME280;63008;53.112;8.896;2023-03-25T07:51:50;99911.06;;;10.15;79.31
5126;BME280;63008;53.112;8.896;2023-03-25T07:53:51;99922.03;;;10.15;79.86
5126;BME280;63008;53.112;8.896;2023-03-25T07:55:52;99910.81;;;10.20;79.99
5126;BME280;63008;53.112;8.896;2023-03-25T07:57:53;99922.66;;;10.24;79.72
5126;BME280;63008;53.112;8.896;2023-03-25T07:59:54;99922.22;;;10.37;78.92
5126;BME280;63008;53.112;8.896;2023-03-25T08:01:55;99924.78;;;10.30;79.24
5126;BME280;63008;53.112;8.896;2023-03-25T08:03:56;99931.25;;;10.22;79.44
5126;BME280;63008;53.112;8.896;2023-03-25T08:06:01;99922.91;;;10.19;79.58
5126;BME280;63008;53.112;8.896;2023-03-25T08:08:04;99932.34;;;10.06;80.08
5126;BME280;63008;53.112;8.896;2023-03-25T08:10:06;99933.88;;;9.91;79.37
5126;BME280;63008;53.112;8.896;2023-03-25T08:12:07;99939.28;;;9.76;80.83
5126;BME280;63008;53.112;8.896;2023-03-25T08:14:09;99961.34;;;9.67;81.75
5126;BME280;63008;53.112;8.896;2023-03-25T08:16:11;99945.19;;;9.50;83.11
5126;BME280;63008;53.112;8.896;2023-03-25T08:18:13;99951.53;;;9.27;85.10
5126;BME280;63008;53.112;8.896;2023-03-25T08:20:14;99953.38;;;9.11;86.88
5126;BME280;63008;53.112;8.896;2023-03-25T08:22:15;99953.69;;;8.98;87.93
5126;BME280;63008;53.112;8.896;2023-03-25T08:24:16;99944.94;;;8.80;88.30
5126;BME280;63008;53.112;8.896;2023-03-25T08:26:17;99941.84;;;8.70;89.05
5126;BME280;63008;53.112;8.896;2023-03-25T08:28:19;99950.03;;;8.58;88.11
5126;BME280;63008;53.112;8.896;2023-03-25T08:30:23;99944.94;;;8.56;88.28
5126;BME280;63008;53.112;8.896;2023-03-25T08:32:26;99941.03;;;8.45;89.09
5126;BME280;63008;53.112;8.896;2023-03-25T08:34:28;99956.63;;;8.45;88.65
5126;BME280;63008;53.112;8.896;2023-03-25T08:36:29;99952.19;;;8.40;88.19
5126;BME280;63008;53.112;8.896;2023-03-25T08:38:33;99951.47;;;8.31;88.70
5126;BME280;63008;53.112;8.896;2023-03-25T08:40:35;99957.16;;;8.26;88.94
5126;BME280;63008;53.112;8.896;2023-03-25T08:42:36;99953.06;;;8.32;88.83
5126;BME280;63008;53.112;8.896;2023-03-25T08:44:38;99949.56;;;8.32;88.20
5126;BME280;63008;53.112;8.896;2023-03-25T08:46:39;99951.38;;;8.40;87.28
5126;BME280;63008;53.112;8.896;2023-03-25T08:48:40;99946.03;;;8.43;86.70
5126;BME280;63008;53.112;8.896;2023-03-25T08:50:41;99949.47;;;8.40;86.66
5126;BME280;63008;53.112;8.896;2023-03-25T08:52:41;99954.56;;;8.42;86.85
5126;BME280;63008;53.112;8.896;2023-03-25T08:54:42;99938.28;;;8.45;86.82
5126;BME280;63008;53.112;8.896;2023-03-25T08:56:43;99955.31;;;8.87;86.08
5126;BME280;63008;53.112;8.896;2023-03-25T08:58:44;99949.94;;;9.26;83.37
5126;BME280;63008;53.112;8.896;2023-03-25T09:00:45;99952.19;;;9.75;82.65
5126;BME280;63008;53.112;8.896;2023-03-25T09:02:46;99950.97;;;10.28;79.13
5126;BME280;63008;53.112;8.896;2023-03-25T09:04:47;99948.63;;;10.57;78.78
5126;BME280;63008;53.112;8.896;2023-03-25T09:06:48;99944.22;;;10.84;76.68
5126;BME280;63008;53.112;8.896;2023-03-25T09:08:49;99944.81;;;10.77;76.52
5126;BME280;63008;53.112;8.896;2023-03-25T09:10:54;99945.69;;;11.12;75.68
5126;BME280;63008;53.112;8.896;2023-03-25T09:12:55;99940.66;;;11.33;75.62
5126;BME280;63008;53.112;8.896;2023-03-25T09:14:56;99950.59;;;11.37;73.58
5126;BME280;63008;53.112;8.896;2023-03-25T09:16:57;99945.00;;;11.34;73.58
5126;BME280;63008;53.112;8.896;2023-03-25T09:18:58;99939.28;;;11.58;72.67
5126;BME280;63008;53.112;8.896;2023-03-25T09:21:00;99945.88;;;11.91;70.77
5126;BME280;63008;53.112;8.896;2023-03-25T09:23:01;99939.09;;;11.51;71.43
5126;BME280;63008;53.112;8.896;2023-03-25T09:25:02;99941.72;;;10.79;73.58
5126;BME280;63008;53.112;8.896;2023-03-25T09:27:03;99934.91;;;10.57;75.17
5126;BME280;63008;53.112;8.896;2023-03-25T09:29:04;99941.34;;;10.34;76.60
5126;BME280;63008;53.112;8.896;2023-03-25T09:31:06;99934.78;;;10.38;76.45
5126;BME280;63008;53.112;8.896;2023-03-25T09:33:07;99929.56;;;10.33;77.17
5126;BME280;63008;53.112;8.896;2023-03-25T09:35:08;99940.63;;;10.21;76.89
5126;BME280;63008;53.112;8.896;2023-03-25T09:37:10;99926.22;;;10.24;77.25
5126;BME280;63008;53.112;8.896;2023-03-25T09:39:11;99934.22;;;10.17;77.71
5126;BME280;63008;53.112;8.896;2023-03-25T09:41:31;99933.06;;;10.18;77.70
5126;BME280;63008;53.112;8.896;2023-03-25T09:43:54;99930.78;;;10.20;77.68
5126;BME280;63008;53.112;8.896;2023-03-25T09:45:59;99933.19;;;10.22;77.39
5126;BME280;63008;53.112;8.896;2023-03-25T09:50:28;99931.25;;;10.22;78.30
5126;BME280;63008;53.112;8.896;2023-03-25T09:54:59;99939.00;;;10.20;78.97
5126;BME280;63008;53.112;8.896;2023-03-25T09:57:06;99931.59;;;10.21;78.84
5126;BME280;63008;53.112;8.896;2023-03-25T09:59:19;99928.50;;;10.22;77.79
5126;BME280;63008;53.112;8.896;2023-03-25T10:01:36;99928.13;;;10.24;78.70
5126;BME280;63008;53.112;8.896;2023-03-25T10:06:18;99918.16;;;10.16;79.87
5126;BME280;63008;53.112;8.896;2023-03-25T10:08:42;99914.84;;;10.10;80.70
5126;BME280;63008;53.112;8.896;2023-03-25T10:11:02;99928.13;;;10.08;81.46
5126;BME280;63008;53.112;8.896;2023-03-25T10:13:27;99910.63;;;10.13;82.03
5126;BME280;63008;53.112;8.896;2023-03-25T10:15:39;99907.25;;;10.19;81.82
5126;BME280;63008;53.112;8.896;2023-03-25T10:18:02;99932.78;;;10.08;82.24
5126;BME280;63008;53.112;8.896;2023-03-25T10:20:29;99930.44;;;9.94;84.07
5126;BME280;63008;53.112;8.896;2023-03-25T10:23:00;99936.78;;;9.83;87.31
5126;BME280;63008;53.112;8.896;2023-03-25T10:25:08;99948.25;;;9.61;88.55
5126;BME280;63008;53.112;8.896;2023-03-25T10:27:37;99952.41;;;9.43;90.42
5126;BME280;63008;53.112;8.896;2023-03-25T10:29:50;99943.97;;;9.24;92.63
5126;BME280;63008;53.112;8.896;2023-03-25T10:31:56;99952.56;;;9.10;93.20
5126;BME280;63008;53.112;8.896;2023-03-25T10:34:03;99946.31;;;8.98;93.70
5126;BME280;63008;53.112;8.896;2023-03-25T10:36:06;99955.88;;;8.92;93.08
5126;BME280;63008;53.112;8.896;2023-03-25T10:38:16;99961.69;;;8.91;92.33
5126;BME280;63008;53.112;8.896;2023-03-25T10:40:22;99934.09;;;8.96;93.05
5126;BME280;63008;53.112;8.896;2023-03-25T10:42:30;99940.03;;;9.09;93.39
5126;BME280;63008;53.112;8.896;2023-03-25T10:44:33;99941.59;;;9.34;92.77
5126;BME280;63008;53.112;8.896;2023-03-25T10:46:55;99929.81;;;9.46;92.13
5126;BME280;63008;53.112;8.896;2023-03-25T10:48:58;99939.25;;;9.48;92.98
5126;BME280;63008;53.112;8.896;2023-03-25T10:51:09;99942.88;;;9.64;92.50
5126;BME280;63008;53.112;8.896;2023-03-25T10:53:23;99935.31;;;9.73;92.43
5126;BME280;63008;53.112;8.896;2023-03-25T10:55:30;99945.13;;;9.74;92.27
5126;BME280;63008;53.112;8.896;2023-03-25T10:57:32;99931.34;;;9.59;92.94
5126;BME280;63008;53.112;8.896;2023-03-25T10:59:42;99923.53;;;9.45;91.78
5126;BME280;63008;53.112;8.896;2023-03-25T11:01:45;99923.41;;;9.42;92.38
5126;BME280;63008;53.112;8.896;2023-03-25T11:03:51;99925.03;;;9.43;93.48
5126;BME280;63008;53.112;8.896;2023-03-25T11:05:52;99932.50;;;9.58;93.57
5126;BME280;63008;53.112;8.896;2023-03-25T11:07:57;99934.44;;;9.69;93.59
5126;BME280;63008;53.112;8.896;2023-03-25T11:10:31;99928.19;;;9.84;95.09
5126;BME280;63008;53.112;8.896;2023-03-25T11:12:33;99929.28;;;10.07;94.49
5126;BME280;63008;53.112;8.896;2023-03-25T11:14:37;99934.22;;;10.17;93.59
5126;BME280;63008;53.112;8.896;2023-03-25T11:16:42;99924.50;;;10.20;92.58
5126;BME280;63008;53.112;8.896;2023-03-25T11:18:45;99925.59;;;10.31;91.78
5126;BME280;63008;53.112;8.896;2023-03-25T11:20:50;99924.78;;;10.30;88.21
5126;BME280;63008;53.112;8.896;2023-03-25T11:22:53;99918.50;;;10.30;87.44
5126;BME280;63008;53.112;8.896;2023-03-25T11:25:02;99922.84;;;10.31;88.11
5126;BME280;63008;53.112;8.896;2023-03-25T11:27:06;99923.03;;;10.22;88.26
5126;BME280;63008;53.112;8.896;2023-03-25T11:29:12;99921.06;;;10.23;84.78
5126;BME280;63008;53.112;8.896;2023-03-25T11:31:16;99919.28;;;10.15;88.24
5126;BME280;63008;53.112;8.896;2023-03-25T11:33:17;99926.53;;;10.07;85.99
5126;BME280;63008;53.112;8.896;2023-03-25T11:35:26;99920.81;;;10.00;87.02
5126;BME280;63008;53.112;8.896;2023-03-25T11:37:28;99924.25;;;9.97;88.83